sensor_id;sensor_type;location;lat;lon;timestamp;P1;durP1;ratioP1;P2;durP2;ratioP2
56419;SDS011;42323;52.170;7.538;2023-09-19T00:02:05;896.45;;;389.00;;
56419;SDS011;42323;52.170;7.538;2023-09-19T00:04:32;884.72;;;384.67;;
56419;SDS011;42323;52.170;7.538;2023-09-19T00:06:59;892.85;;;387.35;;
56419;SDS011;42323;52.170;7.538;2023-09-19T00:09:29;885.10;;;383.80;;
56419;SDS011;42323;52.170;7.538;2023-09-19T00:11:56;845.03;;;368.13;;
56419;SDS011;42323;52.170;7.538;2023-09-19T00:14:24;796.38;;;347.50;;
56419;SDS011;42323;52.170;7.538;2023-09-19T00:16:51;814.92;;;348.63;;
56419;SDS011;42323;52.170;7.538;2023-09-19T00:19:18;819.70;;;350.85;;
56419;SDS011;42323;52.170;7.538;2023-09-19T00:21:44;793.97;;;346.75;;
56419;SDS011;42323;52.170;7.538;2023-09-19T00:24:12;794.63;;;347.73;;
56419;SDS011;42323;52.170;7.538;2023-09-19T00:26:40;794.78;;;346.52;;
56419;SDS011;42323;52.170;7.538;2023-09-19T00:29:06;794.38;;;345.20;;
56419;SDS011;42323;52.170;7.538;2023-09-19T00:31:34;786.88;;;343.75;;
56419;SDS011;42323;52.170;7.538;2023-09-19T00:34:03;901.15;;;381.50;;
56419;SDS011;42323;52.170;7.538;2023-09-19T00:36:30;889.78;;;377.85;;
56419;SDS011;42323;52.170;7.538;2023-09-19T00:38:57;853.42;;;368.98;;
56419;SDS011;42323;52.170;7.538;2023-09-19T00:41:23;831.78;;;362.70;;
56419;SDS011;42323;52.170;7.538;2023-09-19T00:43:51;838.75;;;364.83;;
56419;SDS011;42323;52.170;7.538;2023-09-19T00:46:17;880.17;;;382.25;;
56419;SDS011;42323;52.170;7.538;2023-09-19T00:48:44;903.55;;;386.52;;
56419;SDS011;42323;52.170;7.538;2023-09-19T00:51:12;873.42;;;380.27;;
56419;SDS011;42323;52.170;7.538;2023-09-19T00:53:46;864.25;;;376.65;;
56419;SDS011;42323;52.170;7.538;2023-09-19T00:56:14;791.75;;;349.58;;
56419;SDS011;42323;52.170;7.538;2023-09-19T00:58:44;825.55;;;354.75;;
56419;SDS011;42323;52.170;7.538;2023-09-19T01:01:15;852.65;;;364.88;;
56419;SDS011;42323;52.170;7.538;2023-09-19T01:03:43;845.53;;;367.63;;
56419;SDS011;42323;52.170;7.538;2023-09-19T01:06:11;860.47;;;368.30;;
56419;SDS011;42323;52.170;7.538;2023-09-19T01:08:38;833.03;;;365.02;;
56419;SDS011;42323;52.170;7.538;2023-09-19T01:16:48;864.75;;;370.95;;
56419;SDS011;42323;52.170;7.538;2023-09-19T01:19:45;787.13;;;346.03;;
56419;SDS011;42323;52.170;7.538;2023-09-19T01:31:13;871.00;;;377.37;;
56419;SDS011;42323;52.170;7.538;2023-09-19T01:33:53;848.08;;;373.30;;
56419;SDS011;42323;52.170;7.538;2023-09-19T01:36:23;875.67;;;377.77;;
56419;SDS011;42323;52.170;7.538;2023-09-19T01:38:50;850.05;;;373.75;;
56419;SDS011;42323;52.170;7.538;2023-09-19T01:41:21;857.53;;;374.83;;
56419;SDS011;42323;52.170;7.538;2023-09-19T01:43:56;903.28;;;394.25;;
56419;SDS011;42323;52.170;7.538;2023-09-19T01:46:26;930.95;;;406.98;;
56419;SDS011;42323;52.170;7.538;2023-09-19T01:49:04;884.10;;;384.75;;
56419;SDS011;42323;52.170;7.538;2023-09-19T01:51:43;935.28;;;406.35;;
56419;SDS011;42323;52.170;7.538;2023-09-19T01:54:24;827.25;;;362.35;;
56419;SDS011;42323;52.170;7.538;2023-09-19T01:57:05;853.65;;;374.02;;
56419;SDS011;42323;52.170;7.538;2023-09-19T01:59:45;873.85;;;381.17;;
56419;SDS011;42323;52.170;7.538;2023-09-19T02:02:17;954.83;;;408.23;;
56419;SDS011;42323;52.170;7.538;2023-09-19T02:04:48;933.88;;;395.92;;
56419;SDS011;42323;52.170;7.538;2023-09-19T02:07:15;905.78;;;385.55;;
56419;SDS011;42323;52.170;7.538;2023-09-19T02:09:42;986.05;;;417.95;;
56419;SDS011;42323;52.170;7.538;2023-09-19T02:12:09;863.90;;;375.15;;
56419;SDS011;42323;52.170;7.538;2023-09-19T02:14:36;903.47;;;391.73;;
56419;SDS011;42323;52.170;7.538;2023-09-19T02:17:03;818.97;;;358.38;;
56419;SDS011;42323;52.170;7.538;2023-09-19T02:19:33;845.47;;;369.38;;
56419;SDS011;42323;52.170;7.538;2023-09-19T02:22:00;884.33;;;385.45;;
56419;SDS011;42323;52.170;7.538;2023-09-19T02:24:29;952.78;;;406.60;;
56419;SDS011;42323;52.170;7.538;2023-09-19T02:26:56;919.40;;;392.13;;
56419;SDS011;42323;52.170;7.538;2023-09-19T02:29:23;847.70;;;370.80;;
56419;SDS011;42323;52.170;7.538;2023-09-19T02:31:51;897.35;;;384.77;;
56419;SDS011;42323;52.170;7.538;2023-09-19T02:34:17;935.22;;;409.02;;
56419;SDS011;42323;52.170;7.538;2023-09-19T02:36:44;959.38;;;409.90;;
56419;SDS011;42323;52.170;7.538;2023-09-19T02:39:11;886.60;;;379.52;;
56419;SDS011;42323;52.170;7.538;2023-09-19T02:41:37;885.80;;;378.83;;
56419;SDS011;42323;52.170;7.538;2023-09-19T02:44:04;859.00;;;377.27;;
56419;SDS011;42323;52.170;7.538;2023-09-19T02:46:34;860.63;;;377.88;;
56419;SDS011;42323;52.170;7.538;2023-09-19T02:49:03;930.45;;;409.95;;
56419;SDS011;42323;52.170;7.538;2023-09-19T02:51:32;926.53;;;407.77;;
56419;SDS011;42323;52.170;7.538;2023-09-19T02:54:00;953.90;;;410.27;;
56419;SDS011;42323;52.170;7.538;2023-09-19T02:56:29;867.92;;;384.33;;
56419;SDS011;42323;52.170;7.538;2023-09-19T02:58:56;852.40;;;367.73;;
56419;SDS011;42323;52.170;7.538;2023-09-19T03:01:23;822.80;;;364.25;;
56419;SDS011;42323;52.170;7.538;2023-09-19T03:03:50;815.53;;;361.73;;
56419;SDS011;42323;52.170;7.538;2023-09-19T03:06:17;822.08;;;362.73;;
56419;SDS011;42323;52.170;7.538;2023-09-19T03:08:46;838.03;;;368.10;;
56419;SDS011;42323;52.170;7.538;2023-09-19T03:11:15;830.28;;;368.40;;
56419;SDS011;42323;52.170;7.538;2023-09-19T03:13:52;847.17;;;374.83;;
56419;SDS011;42323;52.170;7.538;2023-09-19T03:16:19;831.65;;;368.73;;
56419;SDS011;42323;52.170;7.538;2023-09-19T03:18:48;816.05;;;364.02;;
56419;SDS011;42323;52.170;7.538;2023-09-19T03:21:15;819.60;;;363.20;;
56419;SDS011;42323;52.170;7.538;2023-09-19T03:23:43;838.08;;;362.55;;
56419;SDS011;42323;52.170;7.538;2023-09-19T03:26:13;805.95;;;358.33;;
56419;SDS011;42323;52.170;7.538;2023-09-19T03:28:43;806.00;;;360.05;;
56419;SDS011;42323;52.170;7.538;2023-09-19T03:31:10;833.35;;;361.45;;
56419;SDS011;42323;52.170;7.538;2023-09-19T03:33:37;800.88;;;357.00;;
56419;SDS011;42323;52.170;7.538;2023-09-19T03:36:04;804.90;;;359.60;;
56419;SDS011;42323;52.170;7.538;2023-09-19T03:38:32;814.13;;;362.00;;
56419;SDS011;42323;52.170;7.538;2023-09-19T03:41:00;836.67;;;363.05;;
56419;SDS011;42323;52.170;7.538;2023-09-19T03:43:28;839.80;;;364.60;;
56419;SDS011;42323;52.170;7.538;2023-09-19T03:45:54;909.08;;;403.50;;
56419;SDS011;42323;52.170;7.538;2023-09-19T03:48:21;899.00;;;397.38;;
56419;SDS011;42323;52.170;7.538;2023-09-19T03:50:49;894.97;;;397.95;;
56419;SDS011;42323;52.170;7.538;2023-09-19T03:53:16;798.08;;;357.58;;
56419;SDS011;42323;52.170;7.538;2023-09-19T03:55:44;800.53;;;357.13;;
56419;SDS011;42323;52.170;7.538;2023-09-19T03:58:11;851.17;;;377.45;;
56419;SDS011;42323;52.170;7.538;2023-09-19T04:00:37;872.67;;;386.08;;
56419;SDS011;42323;52.170;7.538;2023-09-19T04:03:05;885.97;;;394.55;;
56419;SDS011;42323;52.170;7.538;2023-09-19T04:05:33;876.08;;;391.85;;
56419;SDS011;42323;52.170;7.538;2023-09-19T04:08:00;873.30;;;388.13;;
56419;SDS011;42323;52.170;7.538;2023-09-19T04:10:26;881.35;;;392.15;;
56419;SDS011;42323;52.170;7.538;2023-09-19T04:12:54;910.03;;;394.30;;
56419;SDS011;42323;52.170;7.538;2023-09-19T04:15:23;880.08;;;390.17;;
56419;SDS011;42323;52.170;7.538;2023-09-19T04:17:50;890.42;;;384.00;;
56419;SDS011;42323;52.170;7.538;2023-09-19T04:20:18;875.30;;;387.63;;
56419;SDS011;42323;52.170;7.538;2023-09-19T04:22:51;785.22;;;351.77;;
56419;SDS011;42323;52.170;7.538;2023-09-19T04:25:18;809.28;;;353.17;;
56419;SDS011;42323;52.170;7.538;2023-09-19T04:27:45;791.47;;;355.00;;
56419;SDS011;42323;52.170;7.538;2023-09-19T04:30:12;864.47;;;379.17;;
56419;SDS011;42323;52.170;7.538;2023-09-19T04:32:40;863.42;;;378.42;;
56419;SDS011;42323;52.170;7.538;2023-09-19T04:35:08;876.28;;;396.20;;
56419;SDS011;42323;52.170;7.538;2023-09-19T04:37:37;827.83;;;374.13;;
56419;SDS011;42323;52.170;7.538;2023-09-19T04:40:08;855.63;;;375.58;;
56419;SDS011;42323;52.170;7.538;2023-09-19T04:42:39;904.78;;;396.20;;
56419;SDS011;42323;52.170;7.538;2023-09-19T04:45:07;736.15;;;331.30;;
56419;SDS011;42323;52.170;7.538;2023-09-19T04:47:39;755.60;;;331.65;;
56419;SDS011;42323;52.170;7.538;2023-09-19T04:50:08;738.45;;;332.25;;
56419;SDS011;42323;52.170;7.538;2023-09-19T04:52:43;766.67;;;346.00;;
56419;SDS011;42323;52.170;7.538;2023-09-19T04:55:11;784.42;;;345.10;;
56419;SDS011;42323;52.170;7.538;2023-09-19T04:57:46;760.22;;;344.80;;
56419;SDS011;42323;52.170;7.538;2023-09-19T05:00:14;755.38;;;342.55;;
56419;SDS011;42323;52.170;7.538;2023-09-19T05:02:43;775.90;;;350.10;;
56419;SDS011;42323;52.170;7.538;2023-09-19T05:05:10;790.78;;;347.55;;
56419;SDS011;42323;52.170;7.538;2023-09-19T05:07:41;794.13;;;359.17;;
56419;SDS011;42323;52.170;7.538;2023-09-19T05:10:08;779.30;;;352.23;;
56419;SDS011;42323;52.170;7.538;2023-09-19T05:12:36;789.75;;;357.45;;
56419;SDS011;42323;52.170;7.538;2023-09-19T05:15:03;779.30;;;352.95;;
56419;SDS011;42323;52.170;7.538;2023-09-19T05:17:31;661.20;;;303.52;;
56419;SDS011;42323;52.170;7.538;2023-09-19T05:19:57;662.63;;;302.85;;
56419;SDS011;42323;52.170;7.538;2023-09-19T05:22:38;650.42;;;298.33;;
56419;SDS011;42323;52.170;7.538;2023-09-19T05:25:07;654.75;;;299.27;;
56419;SDS011;42323;52.170;7.538;2023-09-19T05:27:34;678.20;;;303.00;;
56419;SDS011;42323;52.170;7.538;2023-09-19T05:30:00;668.92;;;304.48;;
56419;SDS011;42323;52.170;7.538;2023-09-19T05:32:27;664.90;;;302.75;;
56419;SDS011;42323;52.170;7.538;2023-09-19T05:34:53;660.60;;;301.38;;
56419;SDS011;42323;52.170;7.538;2023-09-19T05:37:22;664.40;;;303.98;;
56419;SDS011;42323;52.170;7.538;2023-09-19T05:39:49;664.08;;;304.40;;
56419;SDS011;42323;52.170;7.538;2023-09-19T05:42:16;668.95;;;299.20;;
56419;SDS011;42323;52.170;7.538;2023-09-19T05:44:43;662.58;;;295.40;;
56419;SDS011;42323;52.170;7.538;2023-09-19T05:47:10;650.15;;;297.92;;
56419;SDS011;42323;52.170;7.538;2023-09-19T05:49:36;659.95;;;300.63;;
56419;SDS011;42323;52.170;7.538;2023-09-19T05:52:07;726.17;;;328.65;;
56419;SDS011;42323;52.170;7.538;2023-09-19T05:54:33;688.28;;;305.73;;
56419;SDS011;42323;52.170;7.538;2023-09-19T05:57:00;658.35;;;301.00;;
56419;SDS011;42323;52.170;7.538;2023-09-19T05:59:27;655.28;;;299.98;;
56419;SDS011;42323;52.170;7.538;2023-09-19T06:01:54;652.15;;;297.77;;
56419;SDS011;42323;52.170;7.538;2023-09-19T06:04:21;654.78;;;298.70;;
56419;SDS011;42323;52.170;7.538;2023-09-19T06:06:48;659.13;;;300.00;;
56419;SDS011;42323;52.170;7.538;2023-09-19T06:09:15;657.50;;;299.42;;
56419;SDS011;42323;52.170;7.538;2023-09-19T06:11:42;662.10;;;301.17;;
56419;SDS011;42323;52.170;7.538;2023-09-19T06:14:09;648.78;;;294.70;;
56419;SDS011;42323;52.170;7.538;2023-09-19T06:16:36;662.85;;;293.92;;
56419;SDS011;42323;52.170;7.538;2023-09-19T06:19:07;661.25;;;299.27;;
56419;SDS011;42323;52.170;7.538;2023-09-19T06:21:36;679.50;;;302.42;;
56419;SDS011;42323;52.170;7.538;2023-09-19T06:24:02;666.65;;;300.75;;
56419;SDS011;42323;52.170;7.538;2023-09-19T06:26:29;682.78;;;299.88;;
56419;SDS011;42323;52.170;7.538;2023-09-19T06:28:57;667.03;;;300.33;;
56419;SDS011;42323;52.170;7.538;2023-09-19T06:31:25;669.00;;;301.35;;
56419;SDS011;42323;52.170;7.538;2023-09-19T06:33:52;669.90;;;300.42;;
56419;SDS011;42323;52.170;7.538;2023-09-19T06:36:19;685.88;;;301.35;;
56419;SDS011;42323;52.170;7.538;2023-09-19T06:38:46;674.20;;;302.77;;
56419;SDS011;42323;52.170;7.538;2023-09-19T06:41:18;676.53;;;303.40;;
56419;SDS011;42323;52.170;7.538;2023-09-19T06:43:45;680.60;;;298.90;;
56419;SDS011;42323;52.170;7.538;2023-09-19T06:46:12;674.70;;;303.80;;
56419;SDS011;42323;52.170;7.538;2023-09-19T06:48:39;695.30;;;305.27;;
56419;SDS011;42323;52.170;7.538;2023-09-19T06:51:06;674.22;;;302.42;;
56419;SDS011;42323;52.170;7.538;2023-09-19T06:53:34;696.88;;;306.05;;
56419;SDS011;42323;52.170;7.538;2023-09-19T06:56:02;675.33;;;304.15;;
56419;SDS011;42323;52.170;7.538;2023-09-19T06:58:29;799.17;;;355.55;;
56419;SDS011;42323;52.170;7.538;2023-09-19T07:00:55;698.25;;;314.02;;
56419;SDS011;42323;52.170;7.538;2023-09-19T07:03:23;775.40;;;346.67;;
56419;SDS011;42323;52.170;7.538;2023-09-19T07:05:52;701.60;;;306.85;;
56419;SDS011;42323;52.170;7.538;2023-09-19T07:08:19;736.67;;;327.92;;
56419;SDS011;42323;52.170;7.538;2023-09-19T07:10:46;690.63;;;308.48;;
56419;SDS011;42323;52.170;7.538;2023-09-19T07:13:16;767.13;;;339.70;;
56419;SDS011;42323;52.170;7.538;2023-09-19T07:15:45;812.78;;;350.42;;
56419;SDS011;42323;52.170;7.538;2023-09-19T07:18:17;737.78;;;318.85;;
56419;SDS011;42323;52.170;7.538;2023-09-19T07:20:44;843.40;;;369.27;;
56419;SDS011;42323;52.170;7.538;2023-09-19T07:23:18;912.63;;;389.85;;
56419;SDS011;42323;52.170;7.538;2023-09-19T07:25:48;950.10;;;409.45;;
56419;SDS011;42323;52.170;7.538;2023-09-19T07:28:15;843.78;;;368.10;;
56419;SDS011;42323;52.170;7.538;2023-09-19T07:30:42;837.75;;;367.73;;
56419;SDS011;42323;52.170;7.538;2023-09-19T07:33:09;711.25;;;315.50;;
56419;SDS011;42323;52.170;7.538;2023-09-19T07:35:38;766.63;;;335.80;;
56419;SDS011;42323;52.170;7.538;2023-09-19T07:38:08;850.22;;;369.42;;
56419;SDS011;42323;52.170;7.538;2023-09-19T07:40:36;788.70;;;344.63;;
56419;SDS011;42323;52.170;7.538;2023-09-19T07:43:03;803.00;;;349.02;;
56419;SDS011;42323;52.170;7.538;2023-09-19T07:45:31;820.40;;;349.20;;
56419;SDS011;42323;52.170;7.538;2023-09-19T07:47:58;885.33;;;383.27;;
56419;SDS011;42323;52.170;7.538;2023-09-19T07:50:27;817.97;;;349.35;;
56419;SDS011;42323;52.170;7.538;2023-09-19T07:52:55;807.15;;;349.80;;
56419;SDS011;42323;52.170;7.538;2023-09-19T07:55:22;794.10;;;343.95;;
56419;SDS011;42323;52.170;7.538;2023-09-19T07:57:52;815.63;;;352.55;;
56419;SDS011;42323;52.170;7.538;2023-09-19T08:00:19;803.53;;;348.58;;
56419;SDS011;42323;52.170;7.538;2023-09-19T08:02:46;857.78;;;371.52;;
56419;SDS011;42323;52.170;7.538;2023-09-19T08:05:18;819.58;;;347.65;;
56419;SDS011;42323;52.170;7.538;2023-09-19T08:07:45;823.63;;;355.63;;
56419;SDS011;42323;52.170;7.538;2023-09-19T08:10:18;810.60;;;349.50;;
56419;SDS011;42323;52.170;7.538;2023-09-19T08:12:46;806.33;;;346.90;;
56419;SDS011;42323;52.170;7.538;2023-09-19T08:15:14;856.47;;;366.55;;
56419;SDS011;42323;52.170;7.538;2023-09-19T08:17:42;884.00;;;381.35;;
56419;SDS011;42323;52.170;7.538;2023-09-19T08:20:09;901.92;;;376.85;;
56419;SDS011;42323;52.170;7.538;2023-09-19T08:22:52;881.38;;;376.58;;
56419;SDS011;42323;52.170;7.538;2023-09-19T08:25:22;883.58;;;380.25;;
56419;SDS011;42323;52.170;7.538;2023-09-19T08:27:50;901.53;;;385.35;;
56419;SDS011;42323;52.170;7.538;2023-09-19T08:30:17;922.95;;;397.70;;
56419;SDS011;42323;52.170;7.538;2023-09-19T08:32:50;946.67;;;399.52;;
56419;SDS011;42323;52.170;7.538;2023-09-19T08:35:17;898.03;;;382.58;;
56419;SDS011;42323;52.170;7.538;2023-09-19T08:37:43;902.50;;;384.55;;
56419;SDS011;42323;52.170;7.538;2023-09-19T08:40:13;921.80;;;384.98;;
56419;SDS011;42323;52.170;7.538;2023-09-19T08:42:49;918.15;;;389.90;;
56419;SDS011;42323;52.170;7.538;2023-09-19T08:45:17;916.55;;;388.83;;
56419;SDS011;42323;52.170;7.538;2023-09-19T08:48:00;970.72;;;405.83;;
56419;SDS011;42323;52.170;7.538;2023-09-19T08:50:33;935.65;;;396.42;;
56419;SDS011;42323;52.170;7.538;2023-09-19T08:53:10;939.78;;;401.48;;
56419;SDS011;42323;52.170;7.538;2023-09-19T08:55:44;961.95;;;411.77;;
56419;SDS011;42323;52.170;7.538;2023-09-19T08:58:15;1021.13;;;437.98;;
56419;SDS011;42323;52.170;7.538;2023-09-19T09:00:46;962.63;;;411.70;;
56419;SDS011;42323;52.170;7.538;2023-09-19T09:03:16;1037.50;;;443.75;;
56419;SDS011;42323;52.170;7.538;2023-09-19T09:05:47;969.05;;;414.80;;
56419;SDS011;42323;52.170;7.538;2023-09-19T09:08:17;1022.72;;;435.02;;
56419;SDS011;42323;52.170;7.538;2023-09-19T09:10:47;1097.38;;;471.13;;
56419;SDS011;42323;52.170;7.538;2023-09-19T09:13:15;1026.55;;;437.02;;
56419;SDS011;42323;52.170;7.538;2023-09-19T09:15:43;1044.80;;;445.38;;
56419;SDS011;42323;52.170;7.538;2023-09-19T09:18:11;1089.43;;;455.85;;
56419;SDS011;42323;52.170;7.538;2023-09-19T09:20:38;1103.55;;;465.27;;
56419;SDS011;42323;52.170;7.538;2023-09-19T09:23:04;1105.15;;;464.00;;
56419;SDS011;42323;52.170;7.538;2023-09-19T09:28:25;1037.50;;;439.33;;
56419;SDS011;42323;52.170;7.538;2023-09-19T09:30:54;1117.95;;;461.38;;
56419;SDS011;42323;52.170;7.538;2023-09-19T09:33:22;1016.63;;;426.05;;
56419;SDS011;42323;52.170;7.538;2023-09-19T09:38:19;992.05;;;410.75;;
56419;SDS011;42323;52.170;7.538;2023-09-19T09:40:49;1094.00;;;455.85;;
56419;SDS011;42323;52.170;7.538;2023-09-19T09:43:37;1025.60;;;417.75;;
56419;SDS011;42323;52.170;7.538;2023-09-19T09:46:08;1002.70;;;410.17;;
56419;SDS011;42323;52.170;7.538;2023-09-19T09:48:47;1088.32;;;447.27;;
56419;SDS011;42323;52.170;7.538;2023-09-19T09:51:34;1107.10;;;449.75;;
56419;SDS011;42323;52.170;7.538;2023-09-19T09:54:13;1086.45;;;448.48;;
56419;SDS011;42323;52.170;7.538;2023-09-19T09:56:55;1038.97;;;426.40;;
56419;SDS011;42323;52.170;7.538;2023-09-19T09:59:44;1081.72;;;443.48;;
56419;SDS011;42323;52.170;7.538;2023-09-19T10:02:19;1016.35;;;412.58;;
56419;SDS011;42323;52.170;7.538;2023-09-19T10:04:56;1008.58;;;408.48;;
56419;SDS011;42323;52.170;7.538;2023-09-19T10:07:40;1007.22;;;408.63;;
56419;SDS011;42323;52.170;7.538;2023-09-19T10:10:14;1038.57;;;412.73;;
56419;SDS011;42323;52.170;7.538;2023-09-19T10:12:50;1057.63;;;423.50;;
56419;SDS011;42323;52.170;7.538;2023-09-19T10:15:22;1102.18;;;442.33;;
56419;SDS011;42323;52.170;7.538;2023-09-19T10:17:52;1044.18;;;420.20;;
56419;SDS011;42323;52.170;7.538;2023-09-19T10:20:25;1056.75;;;418.90;;
56419;SDS011;42323;52.170;7.538;2023-09-19T10:22:59;1077.57;;;434.25;;
56419;SDS011;42323;52.170;7.538;2023-09-19T10:25:27;1051.97;;;419.17;;
56419;SDS011;42323;52.170;7.538;2023-09-19T10:27:57;1084.43;;;437.25;;
56419;SDS011;42323;52.170;7.538;2023-09-19T10:30:29;1052.05;;;422.80;;
56419;SDS011;42323;52.170;7.538;2023-09-19T10:33:02;1071.72;;;431.55;;
56419;SDS011;42323;52.170;7.538;2023-09-19T10:35:30;1074.95;;;427.50;;
56419;SDS011;42323;52.170;7.538;2023-09-19T10:38:01;1077.88;;;431.88;;
56419;SDS011;42323;52.170;7.538;2023-09-19T10:40:32;1092.78;;;436.17;;
56419;SDS011;42323;52.170;7.538;2023-09-19T10:43:03;1087.45;;;429.83;;
56419;SDS011;42323;52.170;7.538;2023-09-19T10:45:32;1119.90;;;434.50;;
56419;SDS011;42323;52.170;7.538;2023-09-19T10:48:05;1119.63;;;439.38;;
56419;SDS011;42323;52.170;7.538;2023-09-19T10:50:35;1219.75;;;475.08;;
56419;SDS011;42323;52.170;7.538;2023-09-19T10:53:07;1130.13;;;435.85;;
56419;SDS011;42323;52.170;7.538;2023-09-19T10:55:37;1204.70;;;464.00;;
56419;SDS011;42323;52.170;7.538;2023-09-19T10:58:05;1156.22;;;448.38;;
56419;SDS011;42323;52.170;7.538;2023-09-19T11:00:53;1167.95;;;451.65;;
56419;SDS011;42323;52.170;7.538;2023-09-19T11:03:22;1217.72;;;471.45;;
56419;SDS011;42323;52.170;7.538;2023-09-19T11:08:54;1323.57;;;506.55;;
56419;SDS011;42323;52.170;7.538;2023-09-19T11:14:39;1196.90;;;461.90;;
56419;SDS011;42323;52.170;7.538;2023-09-19T11:30:32;1187.80;;;457.75;;
56419;SDS011;42323;52.170;7.538;2023-09-19T11:33:16;1216.32;;;469.27;;
56419;SDS011;42323;52.170;7.538;2023-09-19T11:43:48;1143.65;;;449.85;;
56419;SDS011;42323;52.170;7.538;2023-09-19T11:46:19;1198.25;;;471.00;;
56419;SDS011;42323;52.170;7.538;2023-09-19T11:48:48;1201.22;;;469.25;;
56419;SDS011;42323;52.170;7.538;2023-09-19T11:51:22;1221.57;;;473.92;;
56419;SDS011;42323;52.170;7.538;2023-09-19T11:53:54;1188.63;;;461.52;;
56419;SDS011;42323;52.170;7.538;2023-09-19T11:56:22;1137.78;;;441.25;;
56419;SDS011;42323;52.170;7.538;2023-09-19T11:58:52;1144.15;;;439.30;;
56419;SDS011;42323;52.170;7.538;2023-09-19T12:01:21;1131.95;;;435.17;;
56419;SDS011;42323;52.170;7.538;2023-09-19T12:04:00;1145.50;;;440.25;;
56419;SDS011;42323;52.170;7.538;2023-09-19T12:06:31;1118.47;;;428.92;;
56419;SDS011;42323;52.170;7.538;2023-09-19T12:08:58;1020.95;;;393.80;;
56419;SDS011;42323;52.170;7.538;2023-09-19T12:11:30;1034.85;;;396.13;;
56419;SDS011;42323;52.170;7.538;2023-09-19T12:14:02;1019.67;;;395.70;;
56419;SDS011;42323;52.170;7.538;2023-09-19T12:16:30;1024.25;;;398.88;;
56419;SDS011;42323;52.170;7.538;2023-09-19T12:18:59;1024.43;;;398.85;;
56419;SDS011;42323;52.170;7.538;2023-09-19T12:21:57;1040.15;;;406.52;;
56419;SDS011;42323;52.170;7.538;2023-09-19T12:24:26;1115.63;;;436.80;;
56419;SDS011;42323;52.170;7.538;2023-09-19T12:27:00;1104.43;;;435.08;;
56419;SDS011;42323;52.170;7.538;2023-09-19T12:29:43;1123.55;;;436.08;;
56419;SDS011;42323;52.170;7.538;2023-09-19T12:32:11;1107.13;;;435.75;;
56419;SDS011;42323;52.170;7.538;2023-09-19T12:34:41;1101.40;;;432.73;;
56419;SDS011;42323;52.170;7.538;2023-09-19T12:37:20;1104.47;;;432.85;;
56419;SDS011;42323;52.170;7.538;2023-09-19T12:39:51;1094.63;;;429.00;;
56419;SDS011;42323;52.170;7.538;2023-09-19T12:42:26;1083.53;;;421.55;;
56419;SDS011;42323;52.170;7.538;2023-09-19T12:45:06;1096.00;;;427.23;;
56419;SDS011;42323;52.170;7.538;2023-09-19T12:47:35;1104.40;;;427.08;;
56419;SDS011;42323;52.170;7.538;2023-09-19T12:52:40;1110.07;;;430.15;;
56419;SDS011;42323;52.170;7.538;2023-09-19T12:55:18;1089.07;;;427.08;;
56419;SDS011;42323;52.170;7.538;2023-09-19T12:58:11;1092.63;;;429.15;;
56419;SDS011;42323;52.170;7.538;2023-09-19T13:00:39;1102.78;;;430.73;;
56419;SDS011;42323;52.170;7.538;2023-09-19T13:03:18;1081.82;;;430.08;;
56419;SDS011;42323;52.170;7.538;2023-09-19T13:05:57;1084.35;;;430.10;;
56419;SDS011;42323;52.170;7.538;2023-09-19T13:08:29;1072.78;;;427.15;;
56419;SDS011;42323;52.170;7.538;2023-09-19T13:13:28;1075.22;;;429.15;;
56419;SDS011;42323;52.170;7.538;2023-09-19T13:15:55;1072.93;;;428.38;;
56419;SDS011;42323;52.170;7.538;2023-09-19T13:18:24;1072.20;;;428.75;;
56419;SDS011;42323;52.170;7.538;2023-09-19T13:21:10;1099.97;;;433.05;;
56419;SDS011;42323;52.170;7.538;2023-09-19T13:26:18;1082.10;;;433.45;;
56419;SDS011;42323;52.170;7.538;2023-09-19T13:28:46;1091.07;;;435.02;;
56419;SDS011;42323;52.170;7.538;2023-09-19T13:31:15;1092.20;;;433.90;;
56419;SDS011;42323;52.170;7.538;2023-09-19T13:33:43;1143.53;;;444.65;;
56419;SDS011;42323;52.170;7.538;2023-09-19T13:36:11;962.40;;;375.92;;
56419;SDS011;42323;52.170;7.538;2023-09-19T13:38:42;904.17;;;359.13;;
56419;SDS011;42323;52.170;7.538;2023-09-19T13:41:12;914.03;;;360.45;;
56419;SDS011;42323;52.170;7.538;2023-09-19T13:43:40;923.60;;;361.95;;
56419;SDS011;42323;52.170;7.538;2023-09-19T13:46:06;995.47;;;379.73;;
56419;SDS011;42323;52.170;7.538;2023-09-19T13:48:41;972.65;;;372.10;;
56419;SDS011;42323;52.170;7.538;2023-09-19T13:51:08;957.00;;;365.85;;
56419;SDS011;42323;52.170;7.538;2023-09-19T13:53:35;957.13;;;367.83;;
56419;SDS011;42323;52.170;7.538;2023-09-19T13:56:01;937.72;;;360.98;;
56419;SDS011;42323;52.170;7.538;2023-09-19T13:58:28;920.28;;;355.45;;
56419;SDS011;42323;52.170;7.538;2023-09-19T14:00:56;804.70;;;324.15;;
56419;SDS011;42323;52.170;7.538;2023-09-19T14:03:24;803.88;;;323.98;;
56419;SDS011;42323;52.170;7.538;2023-09-19T14:05:54;795.20;;;321.95;;
56419;SDS011;42323;52.170;7.538;2023-09-19T14:08:21;792.45;;;321.77;;
56419;SDS011;42323;52.170;7.538;2023-09-19T14:10:49;797.85;;;325.30;;
56419;SDS011;42323;52.170;7.538;2023-09-19T14:13:16;776.83;;;317.90;;
56419;SDS011;42323;52.170;7.538;2023-09-19T14:15:42;781.85;;;321.50;;
56419;SDS011;42323;52.170;7.538;2023-09-19T14:18:09;669.03;;;279.95;;
56419;SDS011;42323;52.170;7.538;2023-09-19T14:20:37;782.25;;;320.58;;
56419;SDS011;42323;52.170;7.538;2023-09-19T14:23:05;779.95;;;320.27;;
56419;SDS011;42323;52.170;7.538;2023-09-19T14:25:36;754.30;;;315.67;;
56419;SDS011;42323;52.170;7.538;2023-09-19T14:28:02;771.22;;;322.92;;
56419;SDS011;42323;52.170;7.538;2023-09-19T14:30:53;768.05;;;322.10;;
56419;SDS011;42323;52.170;7.538;2023-09-19T14:33:20;758.70;;;320.13;;
56419;SDS011;42323;52.170;7.538;2023-09-19T14:35:46;765.15;;;318.98;;
56419;SDS011;42323;52.170;7.538;2023-09-19T14:38:13;758.28;;;320.35;;
56419;SDS011;42323;52.170;7.538;2023-09-19T14:40:40;734.60;;;311.98;;
56419;SDS011;42323;52.170;7.538;2023-09-19T14:43:08;752.85;;;321.45;;
56419;SDS011;42323;52.170;7.538;2023-09-19T14:45:38;755.40;;;319.55;;
56419;SDS011;42323;52.170;7.538;2023-09-19T14:48:04;746.35;;;318.10;;
56419;SDS011;42323;52.170;7.538;2023-09-19T14:50:31;759.40;;;323.05;;
56419;SDS011;42323;52.170;7.538;2023-09-19T14:52:59;733.17;;;312.33;;
56419;SDS011;42323;52.170;7.538;2023-09-19T14:55:28;743.90;;;315.63;;
56419;SDS011;42323;52.170;7.538;2023-09-19T14:57:55;739.65;;;313.60;;
56419;SDS011;42323;52.170;7.538;2023-09-19T15:00:24;732.90;;;307.98;;
56419;SDS011;42323;52.170;7.538;2023-09-19T15:02:51;726.17;;;308.48;;
56419;SDS011;42323;52.170;7.538;2023-09-19T15:05:19;738.78;;;309.27;;